Time;durP1;ratioP1;P1;durP2;ratioP2;P2;SDS_P1;SDS_P2;PMS_P1;PMS_P2;Temp;Humidity;BMP_temperature;BMP_pressure;BME280_temperature;BME280_humidity;BME280_pressure;Samples;Min_cycle;Max_cycle;Signal;HPM_P1;HPM_P2
2023/12/23 00:01:02;;;;;;;0.40;0.40;;;6.60;99.90;;;;;;4989143;28;20201;-81
2023/12/23 00:03:30;;;;;;;0.55;0.55;;;6.60;99.90;;;;;;4992183;28;20219;-82
2023/12/23 00:05:56;;;;;;;1.30;1.30;;;6.70;99.90;;;;;;4984213;28;20195;-82
2023/12/23 00:08:23;;;;;;;1.52;0.85;;;6.70;99.90;;;;;;4993058;28;20335;-81
2023/12/23 00:10:50;;;;;;;0.40;0.40;;;6.80;99.90;;;;;;4998767;28;20189;-83
2023/12/23 00:13:17;;;;;;;0.68;0.60;;;6.80;99.90;;;;;;4989055;28;20194;-82
2023/12/23 00:15:43;;;;;;;0.40;0.40;;;6.80;99.90;;;;;;4981646;28;20200;-82
2023/12/23 00:18:11;;;;;;;0.40;0.40;;;6.80;99.90;;;;;;4999568;28;20248;-80
2023/12/23 00:20:39;;;;;;;0.63;0.57;;;6.80;99.90;;;;;;4983920;28;20200;-81
2023/12/23 00:23:06;;;;;;;0.40;0.38;;;6.90;99.90;;;;;;4993336;28;20209;-80
2023/12/23 00:25:33;;;;;;;3.53;3.30;;;6.90;99.90;;;;;;4992552;28;20205;-81
2023/12/23 00:28:00;;;;;;;0.40;0.40;;;6.90;99.90;;;;;;4999524;28;20225;-81
2023/12/23 00:30:26;;;;;;;0.40;0.40;;;6.90;99.90;;;;;;4993286;28;20248;-81
2023/12/23 00:32:53;;;;;;;0.40;0.35;;;6.90;99.90;;;;;;4980595;28;20198;-80
2023/12/23 00:35:20;;;;;;;0.40;0.40;;;6.90;99.90;;;;;;4994734;28;20197;-82
2023/12/23 00:37:48;;;;;;;1.63;1.50;;;7.00;99.90;;;;;;5000159;28;20193;-80
2023/12/23 00:40:16;;;;;;;0.73;0.73;;;7.00;99.90;;;;;;4986924;28;20194;-82
2023/12/23 00:42:43;;;;;;;0.40;0.40;;;7.00;99.90;;;;;;4981242;28;20237;-80
2023/12/23 00:45:09;;;;;;;0.50;0.50;;;7.00;99.90;;;;;;4980905;28;20679;-82
2023/12/23 00:47:36;;;;;;;6.05;0.77;;;7.00;99.90;;;;;;4997227;28;20193;-80
2023/12/23 00:50:03;;;;;;;0.40;0.40;;;7.00;99.90;;;;;;4991875;28;20203;-82
2023/12/23 00:52:31;;;;;;;0.40;0.32;;;7.00;99.90;;;;;;4999780;28;20196;-80
2023/12/23 00:54:59;;;;;;;0.40;0.40;;;7.00;99.90;;;;;;5000354;28;20196;-82
2023/12/23 00:57:26;;;;;;;0.55;0.55;;;7.10;99.90;;;;;;5001036;28;20196;-81
2023/12/23 00:59:54;;;;;;;2.45;0.70;;;7.10;99.90;;;;;;4984151;28;20218;-81
2023/12/23 01:02:21;;;;;;;1.98;0.93;;;7.10;99.90;;;;;;4992111;28;20213;-82
2023/12/23 01:04:49;;;;;;;0.68;0.43;;;7.10;99.90;;;;;;4982580;28;20272;-79
2023/12/23 01:07:15;;;;;;;0.40;0.40;;;7.10;99.90;;;;;;4988636;28;20245;-81
2023/12/23 01:09:42;;;;;;;0.40;0.30;;;7.10;99.90;;;;;;4980948;28;20223;-78
2023/12/23 01:12:10;;;;;;;0.40;0.40;;;7.10;99.90;;;;;;4992000;28;20207;-81
2023/12/23 01:14:37;;;;;;;2.90;0.88;;;7.10;99.90;;;;;;4983505;28;20232;-80
2023/12/23 01:17:04;;;;;;;0.40;0.40;;;7.10;99.90;;;;;;4999797;28;20204;-80
2023/12/23 01:19:31;;;;;;;0.40;0.30;;;7.00;99.90;;;;;;5000254;28;20221;-81
2023/12/23 01:21:58;;;;;;;0.40;0.40;;;7.00;99.90;;;;;;4992119;28;20213;-81
2023/12/23 01:24:25;;;;;;;0.90;0.90;;;7.00;99.90;;;;;;4994460;28;20197;-81
2023/12/23 01:26:52;;;;;;;1.52;0.90;;;7.00;99.90;;;;;;4988463;28;20197;-78
2023/12/23 01:29:20;;;;;;;0.70;0.70;;;6.90;99.90;;;;;;4981455;28;20225;-81
2023/12/23 01:31:47;;;;;;;1.50;0.95;;;6.90;99.90;;;;;;4988547;28;20198;-80
2023/12/23 01:34:13;;;;;;;0.40;0.38;;;6.90;99.90;;;;;;4984929;28;20265;-82
2023/12/23 01:36:40;;;;;;;0.70;0.70;;;6.90;99.90;;;;;;4992699;28;20221;-81
2023/12/23 01:39:07;;;;;;;0.40;0.40;;;6.90;99.90;;;;;;4982941;28;20700;-80
2023/12/23 01:41:34;;;;;;;0.98;0.98;;;6.90;99.90;;;;;;4992422;28;20194;-81
2023/12/23 01:44:01;;;;;;;0.40;0.40;;;6.90;99.90;;;;;;4979942;28;20222;-81
2023/12/23 01:46:29;;;;;;;0.70;0.50;;;6.90;99.90;;;;;;4980085;28;20190;-81
2023/12/23 01:48:58;;;;;;;0.40;0.40;;;6.90;99.90;;;;;;4987802;28;20213;-79
2023/12/23 01:51:26;;;;;;;0.80;0.80;;;6.90;99.90;;;;;;4979759;28;20542;-81
2023/12/23 01:53:54;;;;;;;0.40;0.40;;;6.90;99.90;;;;;;4988930;28;20203;-81
2023/12/23 01:56:20;;;;;;;0.40;0.40;;;6.90;99.90;;;;;;4986111;28;20845;-81
2023/12/23 01:58:47;;;;;;;0.40;0.40;;;6.90;99.90;;;;;;4979772;28;20221;-80
2023/12/23 02:01:14;;;;;;;0.40;0.40;;;6.90;99.90;;;;;;4984042;28;20201;-81
2023/12/23 02:03:42;;;;;;;0.50;0.50;;;6.90;99.90;;;;;;4992310;28;20219;-80
2023/12/23 02:06:08;;;;;;;0.40;0.40;;;6.90;99.90;;;;;;4991254;28;20200;-82
2023/12/23 02:08:35;;;;;;;0.40;0.40;;;6.90;99.90;;;;;;4992337;28;20205;-81
2023/12/23 02:11:05;;;;;;;0.40;0.38;;;6.90;99.90;;;;;;4989537;28;20201;-83
2023/12/23 02:13:38;;;;;;;0.40;0.40;;;6.90;99.90;;;;;;4987451;28;20189;-81
2023/12/23 02:16:06;;;;;;;0.40;0.30;;;6.90;99.90;;;;;;4979119;28;20270;-81
2023/12/23 02:18:33;;;;;;;0.50;0.50;;;6.80;99.90;;;;;;4995260;28;20249;-82
2023/12/23 02:21:01;;;;;;;0.40;0.35;;;6.80;99.90;;;;;;4991945;28;20198;-81
2023/12/23 02:23:28;;;;;;;0.45;0.45;;;6.80;99.90;;;;;;4986378;28;20220;-81
2023/12/23 02:25:59;;;;;;;0.40;0.30;;;6.80;99.90;;;;;;4988486;28;20202;-79
2023/12/23 02:28:26;;;;;;;0.50;0.50;;;6.80;99.90;;;;;;4985464;28;20224;-80
2023/12/23 02:30:54;;;;;;;0.40;0.38;;;6.80;99.90;;;;;;5016549;23;20224;-82
2023/12/23 02:33:21;;;;;;;1.63;1.52;;;6.80;99.90;;;;;;5020259;28;20261;-81
2023/12/23 02:35:52;;;;;;;0.60;0.40;;;6.80;99.90;;;;;;5020903;28;20208;-81
2023/12/23 02:38:21;;;;;;;0.50;0.47;;;6.70;99.90;;;;;;5020217;28;20229;-81
2023/12/23 02:40:48;;;;;;;0.60;0.52;;;6.80;99.90;;;;;;5027204;28;20242;-80
2023/12/23 02:43:15;;;;;;;0.40;0.30;;;6.70;99.90;;;;;;5010244;28;20220;-81
2023/12/23 02:45:42;;;;;;;0.50;0.50;;;6.70;99.90;;;;;;5018466;28;20229;-81
2023/12/23 02:48:09;;;;;;;0.40;0.40;;;6.70;99.90;;;;;;5021076;28;20312;-80
2023/12/23 02:50:36;;;;;;;0.80;0.50;;;6.70;99.90;;;;;;5021662;28;20220;-81
2023/12/23 02:53:03;;;;;;;48.95;2.97;;;6.70;99.90;;;;;;5019806;28;20201;-80
2023/12/23 02:55:33;;;;;;;0.70;0.50;;;6.70;99.90;;;;;;5018351;28;20202;-81
2023/12/23 02:58:00;;;;;;;0.52;0.40;;;6.70;99.90;;;;;;5019354;28;20204;-81
2023/12/23 03:00:27;;;;;;;0.93;0.60;;;6.80;99.90;;;;;;5021770;28;20224;-81
2023/12/23 03:02:54;;;;;;;0.40;0.40;;;6.70;99.90;;;;;;5022332;28;20205;-81
2023/12/23 03:05:21;;;;;;;0.40;0.40;;;6.70;99.90;;;;;;5021788;28;20273;-78
2023/12/23 03:07:48;;;;;;;0.60;0.60;;;6.70;99.90;;;;;;5021816;28;20192;-82
2023/12/23 03:10:15;;;;;;;0.40;0.30;;;6.70;99.90;;;;;;5021793;28;20223;-78
2023/12/23 03:12:43;;;;;;;0.50;0.40;;;6.70;99.90;;;;;;5021954;28;20216;-81
2023/12/23 03:15:10;;;;;;;0.40;0.40;;;6.70;99.90;;;;;;5018819;28;20682;-80
2023/12/23 03:17:37;;;;;;;0.40;0.30;;;6.70;99.90;;;;;;5018462;28;20283;-82
2023/12/23 03:20:04;;;;;;;0.40;0.30;;;6.80;99.90;;;;;;5019591;28;20247;-81
2023/12/23 03:22:32;;;;;;;0.85;0.75;;;6.80;99.90;;;;;;5021286;28;20216;-82
2023/12/23 03:24:58;;;;;;;0.40;0.30;;;6.80;99.90;;;;;;5021401;28;20250;-81
2023/12/23 03:27:25;;;;;;;1.13;0.85;;;6.80;99.90;;;;;;5018060;28;20288;-78
2023/12/23 03:29:53;;;;;;;25.77;1.52;;;6.80;99.90;;;;;;5018193;28;20289;-81
2023/12/23 03:32:20;;;;;;;0.40;0.40;;;6.80;99.90;;;;;;5010116;28;20274;-81
2023/12/23 03:34:46;;;;;;;3.70;0.88;;;6.80;99.90;;;;;;5018053;28;20269;-82
2023/12/23 03:37:13;;;;;;;0.50;0.50;;;6.80;99.90;;;;;;5019091;28;20201;-80
2023/12/23 03:39:39;;;;;;;0.77;0.77;;;6.90;99.90;;;;;;5023498;28;20466;-82
2023/12/23 03:42:06;;;;;;;1.15;0.70;;;7.00;99.90;;;;;;5022112;28;20204;-82
2023/12/23 03:44:33;;;;;;;0.70;0.60;;;7.00;99.90;;;;;;5020347;28;20328;-81
2023/12/23 03:47:01;;;;;;;0.98;0.95;;;7.10;99.90;;;;;;5020315;28;20204;-82
2023/12/23 03:49:28;;;;;;;2.40;2.20;;;7.10;99.90;;;;;;5023138;28;20215;-82
2023/12/23 03:51:55;;;;;;;0.63;0.60;;;7.20;99.90;;;;;;5023083;28;20724;-81
2023/12/23 03:54:21;;;;;;;0.93;0.93;;;7.20;99.90;;;;;;5023480;28;20189;-80
2023/12/23 03:56:48;;;;;;;0.73;0.70;;;7.30;99.90;;;;;;5022605;28;20220;-81
2023/12/23 03:59:15;;;;;;;0.93;0.93;;;7.40;99.90;;;;;;5020134;28;20196;-81
2023/12/23 04:01:44;;;;;;;1.42;0.88;;;7.40;99.90;;;;;;5019644;28;20201;-80
2023/12/23 04:04:12;;;;;;;0.82;0.82;;;7.50;99.90;;;;;;5020713;28;20523;-81
2023/12/23 04:06:38;;;;;;;0.85;0.85;;;7.50;99.90;;;;;;5022440;28;20383;-81
2023/12/23 04:09:09;;;;;;;1.45;1.00;;;7.50;99.90;;;;;;5020961;28;20232;-81
2023/12/23 04:11:36;;;;;;;1.83;0.93;;;7.60;99.90;;;;;;5023955;28;20220;-81
2023/12/23 04:14:02;;;;;;;3.05;1.20;;;7.60;99.90;;;;;;5021679;28;20265;-80
2023/12/23 04:16:29;;;;;;;1.55;0.90;;;7.70;99.90;;;;;;5025346;28;20197;-81
2023/12/23 04:18:56;;;;;;;2.15;1.95;;;7.70;99.90;;;;;;5018702;28;20241;-81
2023/12/23 04:21:24;;;;;;;0.40;0.40;;;7.80;99.90;;;;;;5013787;28;20276;-81
2023/12/23 04:23:51;;;;;;;3.45;1.55;;;7.80;99.90;;;;;;5021867;28;20280;-81
2023/12/23 04:26:18;;;;;;;0.40;0.30;;;7.90;99.90;;;;;;5021931;28;20646;-81
2023/12/23 04:28:44;;;;;;;0.50;0.50;;;7.90;99.90;;;;;;5021945;28;20204;-81
2023/12/23 04:31:11;;;;;;;0.60;0.60;;;7.90;99.90;;;;;;5019066;28;20672;-80
2023/12/23 04:33:38;;;;;;;0.65;0.65;;;8.00;99.90;;;;;;5023133;28;20215;-80
2023/12/23 04:36:06;;;;;;;0.43;0.38;;;8.00;99.90;;;;;;5020225;28;20192;-80
2023/12/23 04:38:35;;;;;;;2.25;1.33;;;8.00;99.90;;;;;;5018566;28;20280;-81
2023/12/23 04:41:01;;;;;;;2.70;1.65;;;8.00;99.90;;;;;;5018407;28;20617;-80
2023/12/23 04:43:30;;;;;;;4.53;1.27;;;8.00;99.90;;;;;;5021918;28;20232;-81
2023/12/23 04:45:57;;;;;;;4.60;1.20;;;8.00;99.90;;;;;;5021207;28;20235;-81
2023/12/23 04:48:25;;;;;;;1.17;1.10;;;8.00;99.90;;;;;;5018363;28;20232;-79
2023/12/23 04:50:52;;;;;;;1.20;1.10;;;8.00;99.90;;;;;;5016862;28;20213;-81
2023/12/23 04:53:19;;;;;;;0.40;0.40;;;8.00;99.90;;;;;;5019890;28;20197;-78
2023/12/23 04:55:48;;;;;;;0.47;0.45;;;8.00;99.90;;;;;;5020388;28;20207;-79
2023/12/23 04:58:14;;;;;;;1.30;1.20;;;8.10;99.90;;;;;;5019111;28;20211;-81
2023/12/23 05:00:41;;;;;;;0.85;0.80;;;8.00;99.90;;;;;;5017530;28;20217;-80
2023/12/23 05:03:08;;;;;;;13.52;1.13;;;8.10;99.90;;;;;;5018595;28;20668;-80
2023/12/23 05:05:35;;;;;;;2.22;2.03;;;8.10;99.90;;;;;;5020752;28;20203;-81
2023/12/23 05:08:02;;;;;;;1.23;1.05;;;8.10;99.90;;;;;;5020509;28;20232;-80
2023/12/23 05:10:28;;;;;;;0.88;0.82;;;8.10;99.90;;;;;;5017516;28;20213;-80
2023/12/23 05:12:57;;;;;;;3.10;1.90;;;8.10;99.90;;;;;;5017633;28;20201;-81
2023/12/23 05:15:23;;;;;;;1.45;1.35;;;8.10;99.90;;;;;;5017550;28;20229;-78
2023/12/23 05:17:50;;;;;;;1.77;0.88;;;8.00;99.90;;;;;;5016968;28;20228;-81
2023/12/23 05:20:17;;;;;;;1.88;1.77;;;8.00;99.90;;;;;;5011130;28;20675;-80
2023/12/23 05:22:44;;;;;;;2.10;1.90;;;8.10;99.90;;;;;;5019891;28;20207;-79
2023/12/23 05:25:11;;;;;;;1.52;0.50;;;8.00;99.90;;;;;;5019865;28;20196;-80
2023/12/23 05:27:38;;;;;;;1.40;1.30;;;8.10;99.90;;;;;;5016938;28;20205;-80
2023/12/23 05:30:07;;;;;;;0.70;0.70;;;8.10;99.90;;;;;;5017033;28;20240;-79
2023/12/23 05:32:34;;;;;;;3.70;2.50;;;8.10;99.90;;;;;;5021038;28;20256;-80
2023/12/23 05:35:01;;;;;;;1.80;1.70;;;8.10;99.90;;;;;;5020818;28;20203;-81
2023/12/23 05:37:28;;;;;;;3.72;1.13;;;8.00;99.90;;;;;;5016837;28;20205;-80
2023/12/23 05:39:55;;;;;;;2.25;1.15;;;8.00;99.90;;;;;;5017790;28;20224;-81
2023/12/23 05:42:23;;;;;;;1.95;1.85;;;8.00;99.90;;;;;;5019715;28;20235;-80
2023/12/23 05:44:50;;;;;;;1.15;1.05;;;8.10;99.90;;;;;;5022734;28;20220;-80
2023/12/23 05:47:19;;;;;;;1.90;1.73;;;8.00;99.90;;;;;;5025486;28;20272;-80
2023/12/23 05:49:45;;;;;;;4.10;2.50;;;8.00;99.90;;;;;;5023720;28;20244;-81
2023/12/23 05:52:12;;;;;;;3.60;1.75;;;8.00;99.90;;;;;;5019994;28;20259;-80
2023/12/23 05:54:39;;;;;;;2.67;2.28;;;8.00;99.90;;;;;;5017722;28;20193;-81
2023/12/23 05:57:06;;;;;;;0.80;0.50;;;8.00;99.90;;;;;;5017998;28;20270;-80
2023/12/23 05:59:33;;;;;;;19.38;2.35;;;8.00;99.90;;;;;;5010844;28;20324;-81
2023/12/23 06:02:00;;;;;;;2.80;2.60;;;8.00;99.90;;;;;;5018217;28;20205;-82
2023/12/23 06:04:28;;;;;;;0.93;0.85;;;8.00;99.90;;;;;;5020838;28;20277;-80
2023/12/23 06:06:55;;;;;;;0.40;0.40;;;8.00;99.90;;;;;;5015502;28;20269;-81
2023/12/23 06:09:22;;;;;;;0.70;0.65;;;8.10;99.90;;;;;;5017620;28;20264;-81
2023/12/23 06:11:48;;;;;;;3.28;1.55;;;8.10;99.90;;;;;;5018764;28;20198;-82
2023/12/23 06:14:16;;;;;;;0.60;0.60;;;8.10;99.90;;;;;;5018004;28;20201;-81
2023/12/23 06:16:42;;;;;;;0.45;0.43;;;8.10;99.90;;;;;;5020270;28;20196;-82
2023/12/23 06:19:09;;;;;;;0.60;0.60;;;8.10;99.90;;;;;;5020476;28;20260;-80
2023/12/23 06:21:39;;;;;;;0.93;0.88;;;8.10;99.90;;;;;;5017305;28;20220;-82
2023/12/23 06:24:07;;;;;;;1.83;1.52;;;8.10;99.90;;;;;;5016452;28;20655;-81
2023/12/23 06:26:35;;;;;;;1.45;1.13;;;8.10;99.90;;;;;;5016701;28;20261;-81
2023/12/23 06:29:01;;;;;;;0.85;0.85;;;8.10;99.90;;;;;;5016768;28;20197;-81
2023/12/23 06:31:28;;;;;;;1.80;0.60;;;8.10;99.90;;;;;;5018480;28;20288;-81
2023/12/23 06:33:55;;;;;;;5.43;1.55;;;8.10;99.90;;;;;;5020743;28;20199;-80
2023/12/23 06:36:22;;;;;;;0.93;0.73;;;8.10;99.90;;;;;;5018692;28;20287;-81
2023/12/23 06:38:50;;;;;;;1.75;1.50;;;8.10;99.90;;;;;;5017055;28;20270;-81
2023/12/23 06:41:16;;;;;;;3.33;1.17;;;8.10;99.90;;;;;;5024693;28;20220;-81
2023/12/23 06:43:43;;;;;;;0.40;0.30;;;8.10;99.90;;;;;;5015572;28;20217;-80
2023/12/23 06:46:11;;;;;;;1.90;1.00;;;8.10;99.90;;;;;;5015830;28;20205;-81
2023/12/23 06:48:38;;;;;;;5.82;1.25;;;8.10;99.90;;;;;;5009402;28;20193;-82
2023/12/23 06:51:05;;;;;;;1.17;1.08;;;8.10;99.90;;;;;;5016291;28;20314;-81
2023/12/23 06:53:32;;;;;;;0.90;0.88;;;8.10;99.90;;;;;;5017928;28;20264;-81
2023/12/23 06:56:00;;;;;;;1.95;1.00;;;8.10;99.90;;;;;;5016992;28;20851;-81
2023/12/23 06:58:28;;;;;;;1.42;1.10;;;8.10;99.90;;;;;;5019186;28;20201;-81
2023/12/23 07:00:55;;;;;;;1.27;1.20;;;8.10;99.90;;;;;;5020615;28;20217;-81
2023/12/23 07:03:22;;;;;;;0.80;0.80;;;8.20;99.90;;;;;;5012599;28;20197;-78
2023/12/23 07:05:49;;;;;;;1.65;0.73;;;8.20;99.90;;;;;;5019898;28;20196;-81
2023/12/23 07:08:16;;;;;;;1.58;1.48;;;8.20;99.90;;;;;;5019631;28;20208;-81
2023/12/23 07:10:43;;;;;;;3.28;1.98;;;8.20;99.90;;;;;;5016935;28;20223;-80
2023/12/23 07:13:11;;;;;;;0.52;0.52;;;8.20;99.90;;;;;;5015638;28;20224;-81
2023/12/23 07:15:38;;;;;;;0.40;0.40;;;8.20;99.90;;;;;;5019717;28;20251;-82
2023/12/23 07:18:06;;;;;;;2.00;1.80;;;8.10;99.90;;;;;;5020945;28;20267;-80
2023/12/23 07:20:33;;;;;;;1.38;1.05;;;8.20;99.90;;;;;;5017175;28;20228;-82
2023/12/23 07:23:00;;;;;;;1.55;0.95;;;8.20;99.90;;;;;;5014465;28;20296;-82
2023/12/23 07:25:27;;;;;;;2.55;2.35;;;8.20;99.90;;;;;;5003009;28;20228;-81
2023/12/23 07:27:54;;;;;;;2.42;1.33;;;8.20;99.90;;;;;;5011558;28;20200;-81
2023/12/23 07:30:22;;;;;;;0.40;0.40;;;8.20;99.90;;;;;;5009745;28;20229;-81
2023/12/23 07:32:49;;;;;;;0.70;0.60;;;8.20;99.90;;;;;;5009748;28;20192;-81
2023/12/23 07:35:16;;;;;;;0.40;0.40;;;8.20;99.90;;;;;;5010028;28;20207;-80
2023/12/23 07:37:43;;;;;;;3.28;1.65;;;8.20;99.90;;;;;;5002419;28;20200;-80
2023/12/23 07:40:11;;;;;;;0.50;0.50;;;8.20;99.90;;;;;;5012169;28;20308;-81
2023/12/23 07:42:37;;;;;;;1.05;0.93;;;8.20;99.90;;;;;;5014785;28;20193;-80
2023/12/23 07:45:05;;;;;;;1.05;1.05;;;8.20;99.90;;;;;;5007189;28;20225;-81
2023/12/23 07:47:33;;;;;;;0.98;0.85;;;8.20;99.90;;;;;;5008706;28;20196;-81
2023/12/23 07:50:00;;;;;;;1.20;1.10;;;8.20;99.90;;;;;;5012823;28;20248;-81
2023/12/23 07:52:27;;;;;;;1.15;1.05;;;8.20;99.90;;;;;;5007164;28;20205;-82
2023/12/23 07:54:54;;;;;;;2.15;1.65;;;8.20;99.90;;;;;;5010804;28;20224;-81
2023/12/23 07:57:20;;;;;;;0.88;0.60;;;8.20;99.90;;;;;;5009970;28;20672;-81
2023/12/23 07:59:48;;;;;;;0.75;0.75;;;8.20;99.90;;;;;;5002002;28;20216;-81
2023/12/23 08:02:15;;;;;;;0.87;0.77;;;8.20;99.90;;;;;;5009493;28;20259;-81
2023/12/23 08:04:43;;;;;;;4.20;2.45;;;8.20;99.90;;;;;;5005633;28;20476;-80
2023/12/23 08:07:10;;;;;;;0.63;0.55;;;8.30;99.90;;;;;;5000475;28;20308;-81
2023/12/23 08:09:37;;;;;;;5.57;0.77;;;8.30;99.90;;;;;;5006538;28;20223;-81
2023/12/23 08:12:04;;;;;;;0.88;0.68;;;8.30;99.90;;;;;;4998429;28;20196;-81
2023/12/23 08:14:31;;;;;;;0.60;0.60;;;8.30;99.90;;;;;;5007008;28;20195;-81
2023/12/23 08:16:58;;;;;;;0.80;0.80;;;8.30;99.90;;;;;;4998553;28;20197;-81
2023/12/23 08:19:24;;;;;;;1.27;1.17;;;8.30;99.90;;;;;;5007715;28;20205;-81
2023/12/23 08:21:52;;;;;;;0.40;0.32;;;8.30;99.90;;;;;;5010223;28;20215;-81
2023/12/23 08:24:20;;;;;;;1.40;1.30;;;8.30;99.90;;;;;;5019399;28;20583;-81
2023/12/23 08:26:47;;;;;;;0.85;0.85;;;8.30;99.90;;;;;;5012257;28;20256;-81
2023/12/23 08:29:14;;;;;;;0.80;0.45;;;8.30;99.90;;;;;;5023319;28;20197;-81
2023/12/23 08:31:44;;;;;;;0.50;0.50;;;8.30;99.90;;;;;;5034720;23;20224;-82
2023/12/23 08:34:10;;;;;;;0.40;0.30;;;8.30;99.90;;;;;;5002903;28;20229;-81
2023/12/23 08:36:37;;;;;;;1.17;0.85;;;8.30;99.90;;;;;;5012561;28;20204;-80
2023/12/23 08:39:05;;;;;;;22.20;2.25;;;8.40;99.90;;;;;;5003850;28;20208;-82
2023/12/23 08:41:34;;;;;;;2.35;2.10;;;8.40;99.90;;;;;;5016739;28;20196;-81
2023/12/23 08:44:00;;;;;;;2.45;0.98;;;8.40;99.90;;;;;;5003456;28;20284;-82
2023/12/23 08:46:27;;;;;;;0.43;0.40;;;8.40;99.90;;;;;;4997318;28;20213;-81
2023/12/23 08:48:54;;;;;;;0.90;0.90;;;8.50;99.90;;;;;;5009987;28;20203;-81
2023/12/23 08:51:21;;;;;;;0.50;0.50;;;8.50;99.90;;;;;;5008612;28;20207;-81
2023/12/23 08:53:48;;;;;;;0.60;0.50;;;8.50;99.90;;;;;;4989208;28;20255;-81
2023/12/23 08:56:16;;;;;;;0.50;0.45;;;8.50;99.90;;;;;;5003754;28;20205;-82
2023/12/23 08:58:43;;;;;;;1.30;0.63;;;8.50;99.90;;;;;;5005576;28;20688;-82
2023/12/23 09:01:10;;;;;;;0.52;0.52;;;8.50;99.90;;;;;;5011298;28;20466;-81
2023/12/23 09:03:37;;;;;;;0.40;0.40;;;8.60;99.90;;;;;;5006652;28;20624;-81
2023/12/23 09:06:06;;;;;;;0.90;0.45;;;8.60;99.90;;;;;;5001682;28;20531;-82
2023/12/23 09:08:33;;;;;;;0.50;0.50;;;8.60;99.90;;;;;;4998799;28;20219;-81
2023/12/23 09:11:03;;;;;;;1.20;1.10;;;8.60;99.90;;;;;;5009272;28;20965;-82
2023/12/23 09:13:31;;;;;;;0.40;0.40;;;8.60;99.90;;;;;;5008330;28;20213;-81
2023/12/23 09:16:02;;;;;;;0.55;0.55;;;8.60;99.90;;;;;;5008093;28;20600;-81
2023/12/23 09:18:28;;;;;;;0.98;0.50;;;8.60;99.90;;;;;;5016063;28;20660;-81
2023/12/23 09:20:55;;;;;;;54.45;2.80;;;8.70;99.90;;;;;;5013299;28;20653;-81
2023/12/23 09:23:22;;;;;;;1.70;0.85;;;8.70;99.90;;;;;;4996551;28;20217;-81
2023/12/23 09:25:50;;;;;;;0.40;0.30;;;8.70;99.90;;;;;;5007534;28;20216;-81
2023/12/23 09:28:17;;;;;;;0.40;0.40;;;8.70;99.90;;;;;;5016157;28;20967;-81
2023/12/23 09:30:45;;;;;;;1.70;1.60;;;8.80;99.90;;;;;;5005569;28;20199;-81
2023/12/23 09:33:12;;;;;;;0.63;0.50;;;8.80;99.90;;;;;;5010279;28;20264;-81
2023/12/23 09:35:39;;;;;;;3.17;1.10;;;8.80;99.90;;;;;;5014374;28;20193;-82
2023/12/23 09:38:05;;;;;;;0.68;0.68;;;8.80;99.90;;;;;;5007701;28;20538;-81
2023/12/23 09:40:32;;;;;;;0.50;0.50;;;8.80;99.90;;;;;;4998661;28;20193;-81
2023/12/23 09:43:00;;;;;;;2.35;2.25;;;8.90;99.90;;;;;;5000522;28;20216;-81
2023/12/23 09:45:28;;;;;;;3.80;0.88;;;8.90;99.90;;;;;;5015181;28;20220;-81
2023/12/23 09:47:56;;;;;;;1.52;0.93;;;8.90;99.90;;;;;;5007195;28;20197;-80
2023/12/23 09:50:22;;;;;;;0.73;0.40;;;8.90;99.90;;;;;;5008748;28;20194;-80
2023/12/23 09:52:52;;;;;;;0.57;0.47;;;8.90;99.90;;;;;;4998602;28;20208;-81
2023/12/23 09:55:19;;;;;;;0.40;0.40;;;8.90;99.90;;;;;;5007565;28;20435;-81
2023/12/23 09:57:46;;;;;;;0.65;0.65;;;8.90;99.90;;;;;;4997000;28;20257;-81
2023/12/23 10:00:14;;;;;;;0.40;0.40;;;9.00;99.90;;;;;;5001468;28;20206;-79
2023/12/23 10:02:40;;;;;;;0.40;0.40;;;9.00;99.90;;;;;;5013399;28;21006;-80
2023/12/23 10:05:09;;;;;;;0.80;0.80;;;9.00;99.90;;;;;;4995364;28;20564;-80
2023/12/23 10:07:36;;;;;;;1.13;1.02;;;9.00;99.90;;;;;;4995855;28;20867;-81
2023/12/23 10:10:04;;;;;;;0.88;0.40;;;9.00;99.90;;;;;;5007883;28;20201;-80
2023/12/23 10:12:30;;;;;;;1.02;0.60;;;9.00;99.90;;;;;;5006757;28;20220;-80
2023/12/23 10:14:57;;;;;;;0.98;0.82;;;9.10;99.90;;;;;;5007468;28;20193;-80
2023/12/23 10:17:24;;;;;;;0.68;0.68;;;9.10;99.90;;;;;;5007642;28;20204;-77
2023/12/23 10:19:52;;;;;;;0.60;0.40;;;9.00;99.90;;;;;;5013905;28;20203;-81
2023/12/23 10:22:20;;;;;;;0.60;0.60;;;9.00;99.90;;;;;;4999937;28;20217;-80
2023/12/23 10:24:47;;;;;;;2.00;1.77;;;9.00;99.90;;;;;;4997720;28;20217;-81
2023/12/23 10:27:16;;;;;;;1.67;1.08;;;9.00;99.90;;;;;;5016327;28;20192;-80
2023/12/23 10:29:48;;;;;;;0.43;0.43;;;9.10;99.90;;;;;;5015946;28;20189;-81
2023/12/23 10:32:21;;;;;;;0.80;0.80;;;9.10;99.90;;;;;;5015983;28;20467;-80
2023/12/23 10:34:51;;;;;;;1.10;0.80;;;9.10;99.90;;;;;;5015653;28;20439;-80
2023/12/23 10:37:20;;;;;;;3.63;0.50;;;9.10;99.90;;;;;;5014746;28;20453;-81
2023/12/23 10:39:54;;;;;;;2.90;0.70;;;9.10;99.90;;;;;;5013826;28;20193;-80
2023/12/23 10:42:23;;;;;;;1.15;0.90;;;9.10;99.90;;;;;;5009902;28;20462;-80
2023/12/23 10:44:50;;;;;;;0.80;0.80;;;9.00;99.90;;;;;;5015548;28;20208;-80
2023/12/23 10:47:18;;;;;;;0.80;0.80;;;9.00;99.90;;;;;;5014956;28;20287;-81
2023/12/23 10:49:48;;;;;;;3.90;0.90;;;9.00;99.90;;;;;;4997692;28;20440;-81
2023/12/23 10:52:15;;;;;;;1.15;0.50;;;9.00;99.90;;;;;;4995650;28;20515;-80
2023/12/23 10:54:43;;;;;;;1.15;0.70;;;8.90;99.90;;;;;;4996032;28;20197;-78
2023/12/23 10:57:12;;;;;;;0.50;0.50;;;8.90;99.90;;;;;;5014619;28;20287;-81
2023/12/23 10:59:40;;;;;;;1.57;1.23;;;8.90;99.90;;;;;;4998761;28;20197;-80
2023/12/23 11:02:13;;;;;;;1.83;0.95;;;8.90;99.90;;;;;;5014748;28;20481;-81
2023/12/23 11:04:42;;;;;;;0.70;0.70;;;8.90;99.90;;;;;;4997736;28;20200;-80
2023/12/23 11:07:12;;;;;;;1.20;0.70;;;8.80;99.90;;;;;;4995195;28;20257;-81
2023/12/23 11:09:41;;;;;;;1.25;1.08;;;8.80;99.90;;;;;;5011958;28;20193;-81
2023/12/23 11:12:09;;;;;;;2.25;1.38;;;8.80;99.90;;;;;;5014434;28;20270;-80
2023/12/23 11:14:37;;;;;;;0.40;0.30;;;8.80;99.90;;;;;;5014634;28;20202;-80
2023/12/23 11:17:21;;;;;;;0.50;0.50;;;8.80;99.90;;;;;;4995302;28;20197;-80
2023/12/23 11:19:48;;;;;;;1.50;0.73;;;8.80;99.90;;;;;;4997046;28;20201;-80
2023/12/23 11:22:23;;;;;;;0.40;0.30;;;8.70;99.90;;;;;;5009472;28;20463;-80
2023/12/23 11:24:51;;;;;;;0.40;0.30;;;8.70;99.90;;;;;;4997534;28;20200;-79
2023/12/23 11:27:32;;;;;;;0.77;0.40;;;8.70;99.90;;;;;;5014283;28;20192;-80
2023/12/23 11:30:00;;;;;;;0.50;0.50;;;8.70;99.90;;;;;;4995404;28;20432;-80
2023/12/23 11:32:33;;;;;;;0.90;0.90;;;8.70;99.90;;;;;;5001742;28;20557;-81
2023/12/23 11:35:00;;;;;;;0.82;0.60;;;8.70;99.90;;;;;;4995583;28;20247;-81
2023/12/23 11:37:48;;;;;;;0.77;0.77;;;8.70;99.90;;;;;;4995207;28;20248;-80
2023/12/23 11:40:15;;;;;;;0.45;0.43;;;8.70;99.90;;;;;;4988604;28;20244;-80
2023/12/23 11:42:44;;;;;;;0.70;0.70;;;8.70;99.90;;;;;;4994990;28;20264;-79
2023/12/23 11:45:12;;;;;;;1.77;1.47;;;8.70;99.90;;;;;;4994753;28;20275;-80
2023/12/23 11:47:39;;;;;;;0.50;0.47;;;8.70;99.90;;;;;;5003354;28;20463;-80
2023/12/23 11:50:07;;;;;;;1.15;1.15;;;8.70;99.90;;;;;;4994861;28;20200;-81
2023/12/23 11:52:34;;;;;;;0.40;0.40;;;8.80;99.90;;;;;;5002656;28;20217;-80
2023/12/23 11:55:01;;;;;;;4.00;0.68;;;8.80;99.90;;;;;;5005578;28;20193;-80
2023/12/23 11:57:28;;;;;;;2.25;1.40;;;8.80;99.90;;;;;;5014564;28;20192;-79
2023/12/23 11:59:57;;;;;;;0.40;0.38;;;8.90;99.90;;;;;;4997940;28;20635;-80
2023/12/23 12:02:23;;;;;;;0.63;0.63;;;8.90;99.90;;;;;;5012649;28;20227;-81
2023/12/23 12:04:51;;;;;;;2.75;0.80;;;9.00;99.90;;;;;;5010063;28;20190;-80
2023/12/23 12:07:18;;;;;;;0.40;0.40;;;9.00;99.90;;;;;;5010305;28;20282;-80
2023/12/23 12:09:46;;;;;;;2.00;1.00;;;9.00;99.90;;;;;;5018042;28;20202;-80
2023/12/23 12:12:13;;;;;;;0.40;0.40;;;9.10;99.90;;;;;;5005667;28;20515;-80
2023/12/23 12:14:40;;;;;;;0.40;0.40;;;9.10;99.90;;;;;;4998867;28;20193;-80
2023/12/23 12:17:09;;;;;;;0.53;0.53;;;9.10;99.90;;;;;;5001807;28;20458;-80
2023/12/23 12:19:35;;;;;;;0.50;0.40;;;9.20;99.90;;;;;;5010840;28;20440;-81
2023/12/23 12:22:03;;;;;;;1.43;0.77;;;9.10;99.90;;;;;;5014581;28;20459;-82
2023/12/23 12:24:30;;;;;;;8.33;1.13;;;9.20;99.90;;;;;;4998401;28;20435;-80
2023/12/23 12:26:58;;;;;;;0.82;0.82;;;9.20;99.90;;;;;;5005931;28;20484;-81
2023/12/23 12:29:25;;;;;;;0.60;0.40;;;9.20;99.90;;;;;;5006493;28;20538;-81
2023/12/23 12:31:52;;;;;;;9.18;1.88;;;9.20;99.90;;;;;;5015394;28;20224;-78
2023/12/23 12:34:22;;;;;;;0.45;0.38;;;9.20;99.90;;;;;;5017772;28;20199;-81
2023/12/23 12:36:49;;;;;;;0.80;0.80;;;9.30;99.90;;;;;;5016825;28;20224;-81
2023/12/23 12:39:19;;;;;;;0.70;0.40;;;9.30;99.90;;;;;;5004859;28;20440;-81
2023/12/23 12:41:45;;;;;;;1.40;0.93;;;9.30;99.90;;;;;;5005980;28;20546;-80
2023/12/23 12:44:12;;;;;;;1.60;1.30;;;9.30;99.90;;;;;;5009682;28;20201;-81
2023/12/23 12:46:39;;;;;;;0.90;0.70;;;9.30;99.90;;;;;;5009990;28;20217;-81
2023/12/23 12:49:07;;;;;;;0.60;0.60;;;9.30;99.90;;;;;;5005544;28;20955;-80
2023/12/23 12:51:36;;;;;;;1.73;0.80;;;9.30;99.90;;;;;;5006270;28;20448;-81
2023/12/23 12:54:05;;;;;;;0.50;0.50;;;9.40;99.90;;;;;;5016248;28;20458;-80
2023/12/23 12:56:32;;;;;;;0.40;0.40;;;9.40;99.90;;;;;;5011040;28;20927;-80
2023/12/23 12:58:59;;;;;;;0.70;0.50;;;9.40;99.90;;;;;;5008082;28;20629;-80